createdAt,value
2022-09-18T00:01:15.312Z,4.60
2022-09-18T00:03:48.991Z,4.40
2022-09-18T00:06:24.131Z,5.00
2022-09-18T00:08:59.769Z,4.20
2022-09-18T00:11:36.793Z,4.20
2022-09-18T00:14:11.964Z,4.10
2022-09-18T00:16:45.693Z,4.50
2022-09-18T00:19:19.911Z,4.40
2022-09-18T00:21:54.046Z,4.20
2022-09-18T00:24:27.270Z,4.60
2022-09-18T00:27:00.501Z,4.60
2022-09-18T00:29:34.082Z,4.50
2022-09-18T00:32:07.567Z,4.20
2022-09-18T00:34:41.921Z,4.00
2022-09-18T00:37:15.431Z,4.90
2022-09-18T00:39:48.567Z,5.00
2022-09-18T00:42:22.843Z,4.50
2022-09-18T00:44:55.953Z,5.40
2022-09-18T00:47:32.013Z,4.80
2022-09-18T00:50:11.970Z,4.90
2022-09-18T00:52:55.848Z,4.70
2022-09-18T00:55:33.681Z,4.10
2022-09-18T00:58:08.391Z,4.60
2022-09-18T01:00:41.721Z,4.90
2022-09-18T01:03:14.990Z,5.10
2022-09-18T01:06:04.876Z,4.90
2022-09-18T01:08:53.480Z,4.60
2022-09-18T01:11:38.241Z,4.40
2022-09-18T01:14:30.598Z,4.60
2022-09-18T01:17:15.831Z,4.60
2022-09-18T01:20:12.889Z,4.50
2022-09-18T01:23:01.649Z,4.20
2022-09-18T01:25:48.759Z,4.00
2022-09-18T01:28:27.842Z,5.20
2022-09-18T01:31:06.287Z,4.40
2022-09-18T01:33:45.450Z,4.10
2022-09-18T01:36:22.681Z,4.20
2022-09-18T01:39:01.240Z,5.50
2022-09-18T01:44:10.955Z,4.30
2022-09-18T01:46:46.639Z,4.30
2022-09-18T01:49:26.038Z,4.30
2022-09-18T01:52:04.633Z,4.20
2022-09-18T01:54:42.175Z,3.80
2022-09-18T01:57:23.069Z,4.10
2022-09-18T02:00:00.134Z,4.40
2022-09-18T02:02:39.716Z,4.50
2022-09-18T02:05:18.179Z,4.70
2022-09-18T02:07:58.648Z,4.10
2022-09-18T02:10:37.071Z,4.60
2022-09-18T02:13:13.730Z,5.00
2022-09-18T02:15:49.543Z,4.30
2022-09-18T02:18:32.582Z,4.40
2022-09-18T02:21:13.340Z,4.00
2022-09-18T02:23:49.149Z,4.30
2022-09-18T02:26:23.582Z,4.70
2022-09-18T02:28:58.217Z,4.80
2022-09-18T02:31:32.016Z,5.50
2022-09-18T02:34:09.212Z,5.20
2022-09-18T02:37:10.590Z,5.60
2022-09-18T02:39:56.627Z,5.90
2022-09-18T02:42:41.722Z,4.60
2022-09-18T02:45:25.323Z,5.30
2022-09-18T02:48:13.088Z,5.10
2022-09-18T02:50:59.092Z,5.90
2022-09-18T02:53:36.965Z,5.60
2022-09-18T02:56:15.952Z,5.10
2022-09-18T02:58:53.764Z,4.50
2022-09-18T03:01:29.309Z,5.80
2022-09-18T03:04:08.110Z,4.50
2022-09-18T03:06:52.797Z,5.00
2022-09-18T03:09:26.585Z,5.30
2022-09-18T03:12:00.032Z,6.30
2022-09-18T03:14:33.167Z,5.40
2022-09-18T03:17:09.166Z,5.80
2022-09-18T03:19:44.959Z,5.20
2022-09-18T03:22:19.572Z,4.90
2022-09-18T03:24:54.439Z,5.10
2022-09-18T03:27:28.032Z,5.70
2022-09-18T03:30:01.453Z,5.30
2022-09-18T03:32:38.037Z,4.80
2022-09-18T03:35:14.358Z,4.60
2022-09-18T03:37:48.103Z,5.70
2022-09-18T03:40:25.495Z,4.80
2022-09-18T03:42:59.013Z,4.60
2022-09-18T03:45:32.485Z,5.10
2022-09-18T03:48:07.528Z,5.20
2022-09-18T03:50:41.519Z,5.70
2022-09-18T03:53:14.961Z,5.30
2022-09-18T03:56:02.474Z,5.40
2022-09-18T03:58:54.873Z,4.80
2022-09-18T04:01:43.346Z,5.10
2022-09-18T04:04:35.921Z,4.20
2022-09-18T04:07:28.057Z,4.30
2022-09-18T04:10:22.976Z,4.30
2022-09-18T04:12:56.168Z,4.30
2022-09-18T04:15:32.428Z,4.60
2022-09-18T04:18:05.584Z,4.10
2022-09-18T04:20:39.100Z,4.30
2022-09-18T04:23:14.914Z,5.20
2022-09-18T04:25:48.245Z,3.90
2022-09-18T04:28:21.731Z,4.50
2022-09-18T04:30:55.031Z,4.50
2022-09-18T04:33:28.021Z,4.30
2022-09-18T04:36:01.336Z,4.40
2022-09-18T04:38:34.915Z,4.50
2022-09-18T04:41:08.924Z,4.00
2022-09-18T04:43:42.355Z,3.50
2022-09-18T04:46:16.063Z,3.50
2022-09-18T04:48:51.760Z,4.40
2022-09-18T04:51:26.758Z,3.90
2022-09-18T04:54:00.241Z,3.90
2022-09-18T04:56:33.217Z,4.10
2022-09-18T04:59:06.714Z,4.20
2022-09-18T05:01:40.319Z,3.60
2022-09-18T05:04:17.814Z,4.00
2022-09-18T05:06:58.158Z,4.20
2022-09-18T05:09:31.320Z,4.10
2022-09-18T05:12:04.961Z,5.00
2022-09-18T05:14:39.426Z,4.20
2022-09-18T05:17:14.209Z,4.40
2022-09-18T05:19:58.080Z,4.00
2022-09-18T05:22:35.925Z,4.40
2022-09-18T05:25:10.604Z,4.10
2022-09-18T05:27:43.725Z,4.40
2022-09-18T05:30:17.853Z,4.40
2022-09-18T05:33:00.225Z,3.70
2022-09-18T05:35:36.433Z,3.80
2022-09-18T05:40:49.374Z,4.80
2022-09-18T05:43:22.747Z,4.90
2022-09-18T05:45:56.731Z,4.30
2022-09-18T05:48:37.899Z,4.50
2022-09-18T05:51:11.044Z,5.20
2022-09-18T05:53:48.888Z,4.40
2022-09-18T05:56:25.681Z,4.20
2022-09-18T05:59:00.684Z,3.20
2022-09-18T06:01:36.248Z,3.40
2022-09-18T06:04:18.096Z,3.20
2022-09-18T06:07:11.980Z,3.30
2022-09-18T06:09:47.799Z,2.70
2022-09-18T06:12:21.134Z,3.20
2022-09-18T06:14:55.840Z,2.90
2022-09-18T06:17:31.449Z,2.60
2022-09-18T06:20:08.997Z,3.20
2022-09-18T06:22:42.250Z,2.80
2022-09-18T06:25:18.632Z,2.50
2022-09-18T06:27:54.943Z,2.60
2022-09-18T06:30:33.026Z,2.70
2022-09-18T06:33:07.562Z,2.90
2022-09-18T06:35:44.594Z,2.80
2022-09-18T06:38:18.727Z,3.20
2022-09-18T06:40:56.237Z,3.00
2022-09-18T06:43:45.639Z,3.10
2022-09-18T06:46:42.368Z,2.40
2022-09-18T06:49:22.639Z,2.90
2022-09-18T06:51:56.022Z,2.60
2022-09-18T06:54:29.728Z,2.70
2022-09-18T06:57:02.941Z,2.50
2022-09-18T06:59:39.052Z,2.50
2022-09-18T07:02:19.655Z,2.40
2022-09-18T07:05:03.950Z,2.00
2022-09-18T07:07:37.363Z,2.60
2022-09-18T07:10:12.864Z,2.60
2022-09-18T07:12:50.323Z,2.80
2022-09-18T07:15:24.625Z,2.40
2022-09-18T07:17:59.550Z,2.70
2022-09-18T07:20:32.996Z,2.50
2022-09-18T07:23:06.806Z,2.50
2022-09-18T07:25:47.794Z,2.40
2022-09-18T07:28:21.307Z,3.00
2022-09-18T07:31:07.861Z,2.50
2022-09-18T07:36:14.836Z,2.80
2022-09-18T07:38:55.680Z,2.70
2022-09-18T07:41:32.618Z,2.90
2022-09-18T07:44:06.959Z,2.90
2022-09-18T07:46:55.664Z,3.30
2022-09-18T07:49:29.767Z,3.90
2022-09-18T07:52:03.770Z,3.90
2022-09-18T07:54:38.408Z,3.90
2022-09-18T07:57:17.088Z,3.50
2022-09-18T08:00:15.483Z,4.50
2022-09-18T08:02:48.846Z,4.30
2022-09-18T08:05:42.544Z,4.70
2022-09-18T08:08:26.372Z,4.30
2022-09-18T08:11:36.102Z,4.10
2022-09-18T08:14:41.888Z,3.70
2022-09-18T08:17:50.596Z,3.90
2022-09-18T08:20:44.965Z,3.40
2022-09-18T08:23:41.243Z,3.80
2022-09-18T08:26:20.048Z,3.30
2022-09-18T08:28:59.028Z,3.80
2022-09-18T08:31:32.891Z,3.50
2022-09-18T08:34:27.386Z,3.80
2022-09-18T08:37:00.923Z,3.80
2022-09-18T08:39:52.922Z,4.00
2022-09-18T08:43:09.951Z,3.40
2022-09-18T08:45:59.083Z,3.50
2022-09-18T08:48:36.492Z,3.70
2022-09-18T08:51:24.768Z,3.60
2022-09-18T08:54:23.128Z,3.60
2022-09-18T08:57:25.643Z,3.20
2022-09-18T09:00:24.076Z,3.40
2022-09-18T09:03:20.123Z,3.80
2022-09-18T09:05:58.918Z,3.50
2022-09-18T09:08:59.254Z,3.80
2022-09-18T09:11:42.424Z,3.80
2022-09-18T09:14:53.193Z,3.00
2022-09-18T09:17:43.306Z,3.60
2022-09-18T09:20:25.038Z,3.00
2022-09-18T09:23:08.347Z,3.10
2022-09-18T09:26:07.936Z,3.00
2022-09-18T09:29:10.875Z,3.20
2022-09-18T09:31:52.159Z,3.00
2022-09-18T09:35:02.251Z,2.80
2022-09-18T09:37:45.797Z,2.50
2022-09-18T09:40:32.930Z,3.00
2022-09-18T09:43:18.519Z,3.00
2022-09-18T09:45:53.949Z,2.90
2022-09-18T09:48:37.577Z,3.30
2022-09-18T09:51:19.359Z,2.40
2022-09-18T09:53:56.247Z,2.80
2022-09-18T09:56:34.717Z,3.00
2022-09-18T09:59:20.004Z,3.10
2022-09-18T10:02:34.722Z,2.40
2022-09-18T10:05:28.209Z,2.50
2022-09-18T10:08:08.056Z,2.90
2022-09-18T10:13:57.208Z,2.70
2022-09-18T10:16:36.861Z,3.10
2022-09-18T10:19:20.108Z,3.00
2022-09-18T10:21:55.890Z,2.90
2022-09-18T10:27:14.208Z,2.50
2022-09-18T10:29:48.398Z,3.00
2022-09-18T10:32:41.850Z,2.50
2022-09-18T10:35:46.401Z,2.70
2022-09-18T10:38:38.069Z,3.10
2022-09-18T10:41:40.804Z,2.60
2022-09-18T10:44:32.053Z,2.60
2022-09-18T10:47:13.489Z,3.10
2022-09-18T10:49:55.335Z,2.60
2022-09-18T10:52:36.268Z,2.70
2022-09-18T10:55:26.572Z,2.70
2022-09-18T10:58:17.154Z,2.90
2022-09-18T11:01:01.703Z,2.50
2022-09-18T11:03:42.313Z,2.30
2022-09-18T11:06:24.220Z,2.50
2022-09-18T11:09:01.164Z,2.80
2022-09-18T11:11:36.385Z,2.70
2022-09-18T11:14:26.460Z,3.30
2022-09-18T11:17:06.344Z,2.60
2022-09-18T11:19:43.678Z,2.30
2022-09-18T11:22:42.019Z,2.60
2022-09-18T11:25:24.831Z,2.70
2022-09-18T11:28:02.297Z,2.80
2022-09-18T11:30:44.818Z,2.80
2022-09-18T11:33:28.402Z,2.50
2022-09-18T11:36:10.758Z,2.80
2022-09-18T11:38:46.567Z,2.30
2022-09-18T11:41:28.414Z,2.30
2022-09-18T11:44:07.364Z,2.40
2022-09-18T11:46:55.948Z,3.10
2022-09-18T11:49:34.173Z,2.80
2022-09-18T11:52:14.262Z,2.80
2022-09-18T11:54:56.256Z,2.50
2022-09-18T11:57:37.354Z,2.70
2022-09-18T12:00:19.113Z,3.20
2022-09-18T12:03:08.699Z,2.30
2022-09-18T12:05:54.625Z,2.40
2022-09-18T12:08:43.539Z,2.60
2022-09-18T12:11:27.323Z,3.00
2022-09-18T12:14:10.353Z,2.70
2022-09-18T12:16:52.389Z,3.10
2022-09-18T12:19:36.510Z,3.00
2022-09-18T12:22:15.589Z,3.20
2022-09-18T12:24:50.521Z,3.50
2022-09-18T12:27:38.439Z,2.80
2022-09-18T12:30:17.082Z,2.80
2022-09-18T12:33:24.471Z,2.60
2022-09-18T12:36:21.860Z,2.80
2022-09-18T12:39:25.296Z,3.00
2022-09-18T12:42:12.674Z,2.80
2022-09-18T12:45:07.845Z,2.80
2022-09-18T12:47:55.331Z,2.50
2022-09-18T12:50:47.413Z,2.80
2022-09-18T12:53:37.010Z,2.40
2022-09-18T12:56:26.233Z,2.50
2022-09-18T12:59:34.472Z,2.20
2022-09-18T13:02:24.596Z,2.50
2022-09-18T13:05:07.137Z,2.10
2022-09-18T13:10:20.948Z,2.00
2022-09-18T13:13:01.713Z,2.20
2022-09-18T13:15:41.399Z,2.40
2022-09-18T13:18:29.276Z,2.90
2022-09-18T13:21:06.470Z,2.70
2022-09-18T13:23:47.174Z,2.70
2022-09-18T13:26:34.909Z,3.70
2022-09-18T13:29:22.922Z,2.70
2022-09-18T13:31:57.874Z,3.40
2022-09-18T13:34:58.821Z,3.20
2022-09-18T13:37:33.061Z,2.90
2022-09-18T13:40:27.571Z,3.30
2022-09-18T13:43:19.911Z,3.00
2022-09-18T13:45:53.522Z,3.00
2022-09-18T13:48:32.487Z,3.00
2022-09-18T13:51:09.998Z,3.20
2022-09-18T13:53:45.680Z,3.30
2022-09-18T13:56:54.967Z,3.30
2022-09-18T13:59:48.469Z,3.80
2022-09-18T14:02:38.494Z,3.70
2022-09-18T14:05:33.341Z,3.30
2022-09-18T14:08:37.524Z,4.50
2022-09-18T14:11:16.226Z,4.00
2022-09-18T14:13:56.197Z,3.80
2022-09-18T14:16:41.741Z,3.80
2022-09-18T14:19:37.603Z,4.10
2022-09-18T14:22:27.383Z,4.40
2022-09-18T14:25:06.854Z,4.70
2022-09-18T14:27:50.283Z,4.20
2022-09-18T14:30:29.482Z,4.80
2022-09-18T14:33:23.589Z,4.30
2022-09-18T14:36:12.865Z,4.10
2022-09-18T14:38:53.354Z,4.20
2022-09-18T14:41:38.810Z,5.30
2022-09-18T14:44:19.100Z,5.20
2022-09-18T14:47:00.307Z,5.60
2022-09-18T14:49:37.504Z,5.30
2022-09-18T14:52:24.057Z,4.90
2022-09-18T14:54:59.964Z,5.00
2022-09-18T14:57:41.125Z,5.30
2022-09-18T15:00:22.526Z,5.50
2022-09-18T15:03:00.667Z,4.60
2022-09-18T15:05:35.168Z,5.30
2022-09-18T15:08:21.682Z,5.70
2022-09-18T15:11:01.065Z,6.30
2022-09-18T15:13:39.348Z,6.60
2022-09-18T15:16:22.045Z,5.60
2022-09-18T15:18:56.071Z,6.90
2022-09-18T15:21:33.473Z,6.50
2022-09-18T15:24:16.391Z,6.50
2022-09-18T15:26:56.386Z,5.70
2022-09-18T15:29:33.519Z,5.30
2022-09-18T15:32:08.687Z,5.70
2022-09-18T15:34:48.221Z,5.40
2022-09-18T15:37:25.744Z,5.70
2022-09-18T15:40:09.634Z,5.50
2022-09-18T15:42:53.534Z,5.60
2022-09-18T15:45:29.013Z,6.30
2022-09-18T15:48:04.180Z,5.90
2022-09-18T15:50:43.476Z,5.70
2022-09-18T15:53:33.275Z,6.40
2022-09-18T15:56:21.259Z,6.10
2022-09-18T15:58:59.760Z,6.40
2022-09-18T16:01:37.490Z,6.10
2022-09-18T16:04:25.350Z,6.10
2022-09-18T16:07:02.056Z,6.40
2022-09-18T16:09:42.401Z,6.70
2022-09-18T16:12:38.936Z,5.50
2022-09-18T16:15:31.790Z,5.20
2022-09-18T16:18:27.615Z,5.60
2022-09-18T16:21:05.996Z,5.80
2022-09-18T16:23:51.090Z,6.00
2022-09-18T16:26:31.462Z,5.80
2022-09-18T16:29:07.896Z,5.50
2022-09-18T16:31:41.413Z,5.20
2022-09-18T16:34:24.262Z,5.00
2022-09-18T16:36:58.159Z,5.30
2022-09-18T16:39:31.919Z,5.70
2022-09-18T16:42:15.464Z,5.50
2022-09-18T16:44:48.884Z,5.10
2022-09-18T16:47:22.480Z,5.10
2022-09-18T16:49:55.851Z,5.10
2022-09-18T16:52:29.965Z,4.90
2022-09-18T16:55:04.897Z,5.20
2022-09-18T16:57:39.083Z,5.20
2022-09-18T17:00:16.512Z,6.10
2022-09-18T17:02:50.856Z,5.00
2022-09-18T17:05:26.416Z,5.60
2022-09-18T17:08:02.098Z,5.50
2022-09-18T17:10:37.062Z,5.60
2022-09-18T17:13:10.663Z,5.70
2022-09-18T17:15:52.281Z,4.90
2022-09-18T17:18:28.430Z,5.10
2022-09-18T17:21:06.117Z,5.30
2022-09-18T17:23:40.505Z,5.20
2022-09-18T17:26:16.780Z,5.50
2022-09-18T17:28:50.773Z,4.60
2022-09-18T17:31:27.454Z,4.10
2022-09-18T17:34:02.507Z,5.00
2022-09-18T17:36:37.583Z,4.00
2022-09-18T17:39:14.393Z,3.90
2022-09-18T17:41:48.047Z,4.30
2022-09-18T17:44:22.533Z,4.30
2022-09-18T17:46:59.549Z,3.70
2022-09-18T17:49:35.605Z,4.10
2022-09-18T17:52:13.664Z,3.90
2022-09-18T17:54:51.029Z,4.00
2022-09-18T17:57:26.029Z,3.50
2022-09-18T18:00:05.795Z,3.90
2022-09-18T18:02:48.497Z,4.60
2022-09-18T18:05:34.695Z,4.10
2022-09-18T18:10:45.373Z,3.20
2022-09-18T18:13:21.556Z,3.30
2022-09-18T18:16:05.934Z,3.10
2022-09-18T18:18:41.898Z,3.30
2022-09-18T18:21:19.108Z,3.20
2022-09-18T18:24:02.309Z,3.20
2022-09-18T18:26:36.843Z,3.60
2022-09-18T18:29:21.950Z,3.40
2022-09-18T18:32:00.991Z,3.20
2022-09-18T18:34:35.577Z,2.70
2022-09-18T18:37:14.106Z,2.90
2022-09-18T18:39:51.566Z,3.30
2022-09-18T18:42:29.305Z,3.60
2022-09-18T18:45:19.794Z,3.50
2022-09-18T18:47:54.554Z,3.00
2022-09-18T18:50:33.691Z,3.30
2022-09-18T18:53:08.993Z,2.80
2022-09-18T18:55:45.576Z,2.50
2022-09-18T18:58:25.927Z,3.10
2022-09-18T19:01:06.740Z,2.60
2022-09-18T19:03:43.696Z,3.00
2022-09-18T19:06:18.209Z,3.00
2022-09-18T19:09:01.132Z,2.80
2022-09-18T19:11:49.344Z,3.70
2022-09-18T19:14:29.840Z,3.20
2022-09-18T19:17:03.995Z,3.00
2022-09-18T19:19:40.351Z,2.90
2022-09-18T19:22:19.910Z,2.80
2022-09-18T19:24:56.295Z,2.80
2022-09-18T19:27:30.899Z,3.20
2022-09-18T19:30:05.211Z,3.40
2022-09-18T19:32:38.923Z,3.60
2022-09-18T19:35:13.565Z,3.50
2022-09-18T19:37:48.467Z,3.50
2022-09-18T19:40:32.301Z,3.20
2022-09-18T19:43:12.766Z,3.50
2022-09-18T19:45:48.705Z,3.10
2022-09-18T19:48:26.691Z,3.80
2022-09-18T19:51:05.622Z,3.50
2022-09-18T19:53:43.682Z,4.90
2022-09-18T19:56:41.621Z,3.10
2022-09-18T19:59:18.551Z,3.40
2022-09-18T20:01:52.200Z,4.00
2022-09-18T20:04:26.714Z,4.30
2022-09-18T20:07:00.565Z,3.30
2022-09-18T20:09:40.492Z,3.80
2022-09-18T20:12:14.473Z,3.90
2022-09-18T20:14:48.679Z,2.30
2022-09-18T20:17:22.674Z,2.70
2022-09-18T20:20:18.058Z,2.90
2022-09-18T20:22:53.757Z,2.50
2022-09-18T20:25:28.295Z,2.10
2022-09-18T20:28:02.483Z,2.50
2022-09-18T20:30:36.302Z,1.70
2022-09-18T20:33:10.413Z,2.30
2022-09-18T20:35:45.781Z,2.90
2022-09-18T20:38:19.481Z,2.90
2022-09-18T20:41:06.831Z,3.00
2022-09-18T20:43:41.272Z,2.70
2022-09-18T20:46:17.604Z,3.20
2022-09-18T20:48:55.607Z,2.60
2022-09-18T20:51:35.022Z,2.60
2022-09-18T20:54:09.379Z,2.70
2022-09-18T20:56:45.020Z,3.30
2022-09-18T20:59:19.843Z,3.40
2022-09-18T21:01:56.724Z,3.70
2022-09-18T21:04:34.697Z,4.20
2022-09-18T21:07:08.080Z,4.00
2022-09-18T21:09:41.546Z,4.40
2022-09-18T21:12:15.117Z,3.80
2022-09-18T21:14:49.257Z,4.50
2022-09-18T21:17:22.937Z,4.60
2022-09-18T21:19:57.933Z,4.10
2022-09-18T21:23:09.876Z,4.40
2022-09-18T21:25:43.826Z,4.40
2022-09-18T21:28:17.406Z,4.40
2022-09-18T21:30:50.867Z,4.10
2022-09-18T21:33:24.312Z,5.30
2022-09-18T21:35:57.671Z,5.10
2022-09-18T21:38:32.096Z,5.90
2022-09-18T21:41:16.546Z,6.00
2022-09-18T21:43:50.992Z,5.90
2022-09-18T21:46:25.689Z,5.50
2022-09-18T21:48:59.157Z,5.80
2022-09-18T21:51:35.695Z,6.00
2022-09-18T21:54:11.660Z,5.90
2022-09-18T21:56:49.300Z,5.40
2022-09-18T21:59:27.511Z,5.60
2022-09-18T22:02:05.064Z,5.60
2022-09-18T22:04:42.209Z,5.30
2022-09-18T22:07:18.390Z,5.00
2022-09-18T22:09:55.418Z,5.30
2022-09-18T22:12:33.141Z,4.50
2022-09-18T22:15:11.362Z,5.20
2022-09-18T22:17:44.781Z,5.40
2022-09-18T22:20:38.527Z,5.10
2022-09-18T22:23:12.450Z,5.00
2022-09-18T22:25:46.174Z,5.20
2022-09-18T22:28:20.339Z,4.80
2022-09-18T22:30:54.259Z,4.60
2022-09-18T22:33:27.818Z,4.40
2022-09-18T22:36:06.275Z,4.50
2022-09-18T22:38:39.338Z,4.00
2022-09-18T22:41:13.632Z,4.60
2022-09-18T22:43:47.629Z,3.60
2022-09-18T22:46:21.465Z,3.80
2022-09-18T22:48:55.153Z,3.30
2022-09-18T22:51:29.479Z,3.90
2022-09-18T22:54:05.046Z,3.70
2022-09-18T22:56:41.438Z,3.20
2022-09-18T22:59:16.126Z,3.20
2022-09-18T23:01:52.875Z,3.80
2022-09-18T23:04:29.459Z,3.40
2022-09-18T23:07:03.679Z,3.30
2022-09-18T23:09:37.128Z,3.00
2022-09-18T23:12:11.357Z,3.10
2022-09-18T23:14:44.922Z,3.40
2022-09-18T23:17:18.880Z,3.00
2022-09-18T23:19:55.918Z,3.60
2022-09-18T23:22:29.548Z,3.20
2022-09-18T23:25:03.022Z,2.80
2022-09-18T23:27:36.613Z,3.00
2022-09-18T23:30:12.298Z,3.10
2022-09-18T23:32:48.883Z,2.80
2022-09-18T23:35:22.849Z,2.90
2022-09-18T23:37:56.781Z,3.10
2022-09-18T23:40:30.940Z,2.90
2022-09-18T23:43:04.356Z,3.00
2022-09-18T23:45:38.082Z,3.00
2022-09-18T23:48:11.512Z,2.60
2022-09-18T23:50:44.726Z,3.00
2022-09-18T23:53:18.741Z,2.80
2022-09-18T23:55:53.109Z,2.90
2022-09-18T23:58:26.629Z,2.90
